sensor_id;sensor_type;location;lat;lon;timestamp;P1;durP1;ratioP1;P2;durP2;ratioP2
4742;SDS011;24293;48.154;7.748;2023-09-07T00:02:23;13.50;;;7.37;;
4742;SDS011;24293;48.154;7.748;2023-09-07T00:04:53;14.30;;;7.43;;
4742;SDS011;24293;48.154;7.748;2023-09-07T00:07:21;9.80;;;6.80;;
4742;SDS011;24293;48.154;7.748;2023-09-07T00:09:48;9.67;;;6.43;;
4742;SDS011;24293;48.154;7.748;2023-09-07T00:12:15;10.20;;;6.60;;
4742;SDS011;24293;48.154;7.748;2023-09-07T00:14:41;9.67;;;6.60;;
4742;SDS011;24293;48.154;7.748;2023-09-07T00:17:08;11.90;;;7.30;;
4742;SDS011;24293;48.154;7.748;2023-09-07T00:19:34;12.80;;;7.60;;
4742;SDS011;24293;48.154;7.748;2023-09-07T00:22:02;15.73;;;7.30;;
4742;SDS011;24293;48.154;7.748;2023-09-07T00:24:30;12.97;;;6.87;;
4742;SDS011;24293;48.154;7.748;2023-09-07T00:27:00;10.43;;;6.67;;
4742;SDS011;24293;48.154;7.748;2023-09-07T00:29:30;11.83;;;6.67;;
4742;SDS011;24293;48.154;7.748;2023-09-07T00:31:57;9.90;;;6.40;;
4742;SDS011;24293;48.154;7.748;2023-09-07T00:34:23;11.60;;;6.73;;
4742;SDS011;24293;48.154;7.748;2023-09-07T00:36:50;11.30;;;7.17;;
4742;SDS011;24293;48.154;7.748;2023-09-07T00:39:16;17.07;;;6.30;;
4742;SDS011;24293;48.154;7.748;2023-09-07T00:41:44;11.50;;;7.10;;
4742;SDS011;24293;48.154;7.748;2023-09-07T00:44:10;15.07;;;7.43;;
4742;SDS011;24293;48.154;7.748;2023-09-07T00:46:37;9.77;;;6.73;;
4742;SDS011;24293;48.154;7.748;2023-09-07T00:49:03;11.23;;;7.07;;
4742;SDS011;24293;48.154;7.748;2023-09-07T00:51:30;14.70;;;6.90;;
4742;SDS011;24293;48.154;7.748;2023-09-07T00:53:57;12.30;;;7.60;;
4742;SDS011;24293;48.154;7.748;2023-09-07T00:56:31;15.60;;;8.23;;
4742;SDS011;24293;48.154;7.748;2023-09-07T00:58:59;30.80;;;7.80;;
4742;SDS011;24293;48.154;7.748;2023-09-07T01:01:26;12.30;;;7.40;;
4742;SDS011;24293;48.154;7.748;2023-09-07T01:04:01;19.90;;;9.30;;
4742;SDS011;24293;48.154;7.748;2023-09-07T01:06:32;11.50;;;8.17;;
4742;SDS011;24293;48.154;7.748;2023-09-07T01:09:06;17.23;;;9.80;;
4742;SDS011;24293;48.154;7.748;2023-09-07T01:11:35;12.93;;;7.63;;
4742;SDS011;24293;48.154;7.748;2023-09-07T01:14:03;11.10;;;7.30;;
4742;SDS011;24293;48.154;7.748;2023-09-07T01:16:30;17.07;;;7.97;;
4742;SDS011;24293;48.154;7.748;2023-09-07T01:18:59;12.47;;;7.30;;
4742;SDS011;24293;48.154;7.748;2023-09-07T01:21:26;12.43;;;8.23;;
4742;SDS011;24293;48.154;7.748;2023-09-07T01:26:42;11.20;;;6.10;;
4742;SDS011;24293;48.154;7.748;2023-09-07T01:29:14;13.40;;;6.73;;
4742;SDS011;24293;48.154;7.748;2023-09-07T01:31:43;9.63;;;5.90;;
4742;SDS011;24293;48.154;7.748;2023-09-07T01:34:09;10.00;;;6.30;;
4742;SDS011;24293;48.154;7.748;2023-09-07T01:36:38;11.17;;;5.87;;
4742;SDS011;24293;48.154;7.748;2023-09-07T01:39:04;11.00;;;5.80;;
4742;SDS011;24293;48.154;7.748;2023-09-07T01:41:33;13.33;;;6.47;;
4742;SDS011;24293;48.154;7.748;2023-09-07T01:44:01;9.13;;;5.80;;
4742;SDS011;24293;48.154;7.748;2023-09-07T01:46:27;15.13;;;6.50;;
4742;SDS011;24293;48.154;7.748;2023-09-07T01:48:54;8.40;;;6.20;;
4742;SDS011;24293;48.154;7.748;2023-09-07T01:51:20;9.87;;;6.50;;
4742;SDS011;24293;48.154;7.748;2023-09-07T01:53:47;11.73;;;6.40;;
4742;SDS011;24293;48.154;7.748;2023-09-07T01:56:13;14.47;;;6.70;;
4742;SDS011;24293;48.154;7.748;2023-09-07T01:58:41;10.83;;;6.63;;
4742;SDS011;24293;48.154;7.748;2023-09-07T02:01:19;12.33;;;7.07;;
4742;SDS011;24293;48.154;7.748;2023-09-07T02:03:46;19.23;;;7.13;;
4742;SDS011;24293;48.154;7.748;2023-09-07T02:06:13;15.00;;;6.47;;
4742;SDS011;24293;48.154;7.748;2023-09-07T02:08:39;14.80;;;7.03;;
4742;SDS011;24293;48.154;7.748;2023-09-07T02:11:06;11.80;;;6.03;;
4742;SDS011;24293;48.154;7.748;2023-09-07T02:13:32;15.43;;;6.73;;
4742;SDS011;24293;48.154;7.748;2023-09-07T02:16:02;22.23;;;6.83;;
4742;SDS011;24293;48.154;7.748;2023-09-07T02:18:31;22.03;;;7.40;;
4742;SDS011;24293;48.154;7.748;2023-09-07T02:21:01;12.80;;;6.27;;
4742;SDS011;24293;48.154;7.748;2023-09-07T02:23:30;12.00;;;6.60;;
4742;SDS011;24293;48.154;7.748;2023-09-07T02:26:10;8.80;;;6.20;;
4742;SDS011;24293;48.154;7.748;2023-09-07T02:28:41;13.43;;;7.03;;
4742;SDS011;24293;48.154;7.748;2023-09-07T02:31:11;18.37;;;7.23;;
4742;SDS011;24293;48.154;7.748;2023-09-07T02:33:39;12.90;;;7.13;;
4742;SDS011;24293;48.154;7.748;2023-09-07T02:36:11;9.47;;;6.40;;
4742;SDS011;24293;48.154;7.748;2023-09-07T02:38:37;10.90;;;6.97;;
4742;SDS011;24293;48.154;7.748;2023-09-07T02:41:04;14.87;;;8.00;;
4742;SDS011;24293;48.154;7.748;2023-09-07T02:43:32;10.53;;;6.80;;
4742;SDS011;24293;48.154;7.748;2023-09-07T02:45:58;16.67;;;8.10;;
4742;SDS011;24293;48.154;7.748;2023-09-07T02:48:25;13.37;;;7.30;;
4742;SDS011;24293;48.154;7.748;2023-09-07T02:50:54;13.33;;;8.30;;
4742;SDS011;24293;48.154;7.748;2023-09-07T02:53:23;12.03;;;7.20;;
4742;SDS011;24293;48.154;7.748;2023-09-07T02:55:51;16.00;;;7.83;;
4742;SDS011;24293;48.154;7.748;2023-09-07T02:58:17;14.33;;;7.20;;
4742;SDS011;24293;48.154;7.748;2023-09-07T03:00:44;12.77;;;7.13;;
4742;SDS011;24293;48.154;7.748;2023-09-07T03:03:12;13.63;;;6.60;;
4742;SDS011;24293;48.154;7.748;2023-09-07T03:05:39;15.93;;;7.50;;
4742;SDS011;24293;48.154;7.748;2023-09-07T03:08:09;18.33;;;9.40;;
4742;SDS011;24293;48.154;7.748;2023-09-07T03:10:36;12.37;;;7.23;;
4742;SDS011;24293;48.154;7.748;2023-09-07T03:13:04;11.83;;;8.20;;
4742;SDS011;24293;48.154;7.748;2023-09-07T03:15:30;12.50;;;7.17;;
4742;SDS011;24293;48.154;7.748;2023-09-07T03:17:57;12.00;;;7.63;;
4742;SDS011;24293;48.154;7.748;2023-09-07T03:20:23;13.50;;;7.27;;
4742;SDS011;24293;48.154;7.748;2023-09-07T03:22:50;14.57;;;7.47;;
4742;SDS011;24293;48.154;7.748;2023-09-07T03:25:18;12.07;;;7.43;;
4742;SDS011;24293;48.154;7.748;2023-09-07T03:27:46;12.63;;;7.10;;
4742;SDS011;24293;48.154;7.748;2023-09-07T03:30:12;11.00;;;6.60;;
4742;SDS011;24293;48.154;7.748;2023-09-07T03:32:39;15.70;;;6.60;;
4742;SDS011;24293;48.154;7.748;2023-09-07T03:35:05;12.17;;;6.90;;
4742;SDS011;24293;48.154;7.748;2023-09-07T03:37:34;11.30;;;6.60;;
4742;SDS011;24293;48.154;7.748;2023-09-07T03:40:00;11.10;;;6.80;;
4742;SDS011;24293;48.154;7.748;2023-09-07T03:42:29;15.07;;;6.90;;
4742;SDS011;24293;48.154;7.748;2023-09-07T03:44:56;14.03;;;6.47;;
4742;SDS011;24293;48.154;7.748;2023-09-07T03:47:23;9.47;;;6.93;;
4742;SDS011;24293;48.154;7.748;2023-09-07T03:49:54;11.63;;;7.50;;
4742;SDS011;24293;48.154;7.748;2023-09-07T03:52:20;14.63;;;7.43;;
4742;SDS011;24293;48.154;7.748;2023-09-07T03:54:49;12.13;;;7.20;;
4742;SDS011;24293;48.154;7.748;2023-09-07T03:57:18;9.90;;;6.53;;
4742;SDS011;24293;48.154;7.748;2023-09-07T03:59:47;11.60;;;7.13;;
4742;SDS011;24293;48.154;7.748;2023-09-07T04:02:14;14.17;;;8.33;;
4742;SDS011;24293;48.154;7.748;2023-09-07T04:04:43;18.13;;;8.57;;
4742;SDS011;24293;48.154;7.748;2023-09-07T04:07:10;14.80;;;6.93;;
4742;SDS011;24293;48.154;7.748;2023-09-07T04:09:36;12.63;;;7.80;;
4742;SDS011;24293;48.154;7.748;2023-09-07T04:12:03;13.20;;;7.47;;
4742;SDS011;24293;48.154;7.748;2023-09-07T04:14:29;12.97;;;7.17;;
4742;SDS011;24293;48.154;7.748;2023-09-07T04:16:57;14.60;;;6.80;;
4742;SDS011;24293;48.154;7.748;2023-09-07T04:19:24;10.73;;;7.23;;
4742;SDS011;24293;48.154;7.748;2023-09-07T04:21:50;13.07;;;8.53;;
4742;SDS011;24293;48.154;7.748;2023-09-07T04:24:17;12.63;;;7.20;;
4742;SDS011;24293;48.154;7.748;2023-09-07T04:26:45;11.10;;;7.70;;
4742;SDS011;24293;48.154;7.748;2023-09-07T04:29:12;14.20;;;7.97;;
4742;SDS011;24293;48.154;7.748;2023-09-07T04:31:39;15.00;;;8.37;;
4742;SDS011;24293;48.154;7.748;2023-09-07T04:34:07;12.33;;;7.70;;
4742;SDS011;24293;48.154;7.748;2023-09-07T04:36:33;14.30;;;7.93;;
4742;SDS011;24293;48.154;7.748;2023-09-07T04:39:00;12.20;;;7.80;;
4742;SDS011;24293;48.154;7.748;2023-09-07T04:41:28;12.37;;;7.53;;
4742;SDS011;24293;48.154;7.748;2023-09-07T04:43:55;17.57;;;8.23;;
4742;SDS011;24293;48.154;7.748;2023-09-07T04:46:22;17.70;;;8.30;;
4742;SDS011;24293;48.154;7.748;2023-09-07T04:48:49;13.17;;;7.37;;
4742;SDS011;24293;48.154;7.748;2023-09-07T04:51:19;14.07;;;8.40;;
4742;SDS011;24293;48.154;7.748;2023-09-07T04:53:47;14.17;;;8.27;;
4742;SDS011;24293;48.154;7.748;2023-09-07T04:56:13;12.93;;;7.80;;
4742;SDS011;24293;48.154;7.748;2023-09-07T04:58:41;12.90;;;8.43;;
4742;SDS011;24293;48.154;7.748;2023-09-07T05:01:09;17.13;;;8.60;;
4742;SDS011;24293;48.154;7.748;2023-09-07T05:03:36;12.63;;;8.60;;
4742;SDS011;24293;48.154;7.748;2023-09-07T05:06:03;13.10;;;8.20;;
4742;SDS011;24293;48.154;7.748;2023-09-07T05:08:32;13.50;;;8.90;;
4742;SDS011;24293;48.154;7.748;2023-09-07T05:10:59;25.60;;;13.80;;
4742;SDS011;24293;48.154;7.748;2023-09-07T05:13:27;12.57;;;7.40;;
4742;SDS011;24293;48.154;7.748;2023-09-07T05:15:54;12.67;;;7.43;;
4742;SDS011;24293;48.154;7.748;2023-09-07T05:18:21;28.50;;;13.50;;
4742;SDS011;24293;48.154;7.748;2023-09-07T05:20:47;20.23;;;10.37;;
4742;SDS011;24293;48.154;7.748;2023-09-07T05:23:16;11.83;;;7.20;;
4742;SDS011;24293;48.154;7.748;2023-09-07T05:25:58;12.50;;;7.30;;
4742;SDS011;24293;48.154;7.748;2023-09-07T05:28:24;13.50;;;8.10;;
4742;SDS011;24293;48.154;7.748;2023-09-07T05:30:50;18.80;;;10.10;;
4742;SDS011;24293;48.154;7.748;2023-09-07T05:33:18;23.80;;;10.37;;
4742;SDS011;24293;48.154;7.748;2023-09-07T05:35:45;18.20;;;9.33;;
4742;SDS011;24293;48.154;7.748;2023-09-07T05:38:12;13.10;;;6.77;;
4742;SDS011;24293;48.154;7.748;2023-09-07T05:40:39;13.60;;;7.50;;
4742;SDS011;24293;48.154;7.748;2023-09-07T05:43:07;12.50;;;6.97;;
4742;SDS011;24293;48.154;7.748;2023-09-07T05:45:34;12.37;;;7.57;;
4742;SDS011;24293;48.154;7.748;2023-09-07T05:48:01;11.37;;;6.90;;
4742;SDS011;24293;48.154;7.748;2023-09-07T05:50:28;12.90;;;7.20;;
4742;SDS011;24293;48.154;7.748;2023-09-07T05:52:54;11.30;;;7.50;;
4742;SDS011;24293;48.154;7.748;2023-09-07T05:55:22;9.70;;;6.77;;
4742;SDS011;24293;48.154;7.748;2023-09-07T05:57:57;13.80;;;6.90;;
4742;SDS011;24293;48.154;7.748;2023-09-07T06:00:27;12.60;;;7.03;;
4742;SDS011;24293;48.154;7.748;2023-09-07T06:02:54;14.20;;;7.77;;
4742;SDS011;24293;48.154;7.748;2023-09-07T06:05:21;12.20;;;7.73;;
4742;SDS011;24293;48.154;7.748;2023-09-07T06:07:47;11.17;;;7.80;;
4742;SDS011;24293;48.154;7.748;2023-09-07T06:10:14;16.60;;;9.53;;
4742;SDS011;24293;48.154;7.748;2023-09-07T06:12:40;19.20;;;8.90;;
4742;SDS011;24293;48.154;7.748;2023-09-07T06:15:07;11.23;;;8.30;;
4742;SDS011;24293;48.154;7.748;2023-09-07T06:17:35;15.73;;;9.40;;
4742;SDS011;24293;48.154;7.748;2023-09-07T06:20:02;15.70;;;10.10;;
4742;SDS011;24293;48.154;7.748;2023-09-07T06:22:30;19.43;;;9.50;;
4742;SDS011;24293;48.154;7.748;2023-09-07T06:24:56;16.90;;;10.80;;
4742;SDS011;24293;48.154;7.748;2023-09-07T06:27:23;16.23;;;9.80;;
4742;SDS011;24293;48.154;7.748;2023-09-07T06:29:49;15.73;;;10.67;;
4742;SDS011;24293;48.154;7.748;2023-09-07T06:32:16;15.30;;;10.80;;
4742;SDS011;24293;48.154;7.748;2023-09-07T06:34:45;15.50;;;11.00;;
4742;SDS011;24293;48.154;7.748;2023-09-07T06:37:12;17.37;;;11.43;;
4742;SDS011;24293;48.154;7.748;2023-09-07T06:39:39;16.00;;;11.13;;
4742;SDS011;24293;48.154;7.748;2023-09-07T06:42:08;19.13;;;10.67;;
4742;SDS011;24293;48.154;7.748;2023-09-07T06:44:36;22.13;;;12.60;;
4742;SDS011;24293;48.154;7.748;2023-09-07T06:47:03;15.97;;;10.73;;
4742;SDS011;24293;48.154;7.748;2023-09-07T06:49:29;18.23;;;12.53;;
4742;SDS011;24293;48.154;7.748;2023-09-07T06:51:58;20.50;;;12.70;;
4742;SDS011;24293;48.154;7.748;2023-09-07T06:54:25;20.40;;;12.60;;
4742;SDS011;24293;48.154;7.748;2023-09-07T06:56:51;17.50;;;10.80;;
4742;SDS011;24293;48.154;7.748;2023-09-07T06:59:18;17.53;;;12.17;;
4742;SDS011;24293;48.154;7.748;2023-09-07T07:01:44;16.53;;;11.57;;
4742;SDS011;24293;48.154;7.748;2023-09-07T07:04:13;18.07;;;12.17;;
4742;SDS011;24293;48.154;7.748;2023-09-07T07:06:40;17.90;;;12.30;;
4742;SDS011;24293;48.154;7.748;2023-09-07T07:09:09;15.97;;;11.20;;
4742;SDS011;24293;48.154;7.748;2023-09-07T07:11:36;17.93;;;11.40;;
4742;SDS011;24293;48.154;7.748;2023-09-07T07:14:04;18.90;;;11.63;;
4742;SDS011;24293;48.154;7.748;2023-09-07T07:16:30;16.57;;;11.67;;
4742;SDS011;24293;48.154;7.748;2023-09-07T07:18:57;18.10;;;12.30;;
4742;SDS011;24293;48.154;7.748;2023-09-07T07:21:23;17.20;;;11.03;;
4742;SDS011;24293;48.154;7.748;2023-09-07T07:23:50;18.13;;;11.10;;
4742;SDS011;24293;48.154;7.748;2023-09-07T07:26:18;17.03;;;10.50;;
4742;SDS011;24293;48.154;7.748;2023-09-07T07:28:47;16.17;;;11.30;;
4742;SDS011;24293;48.154;7.748;2023-09-07T07:31:14;23.80;;;12.63;;
4742;SDS011;24293;48.154;7.748;2023-09-07T07:33:41;15.93;;;10.40;;
4742;SDS011;24293;48.154;7.748;2023-09-07T07:36:08;21.50;;;11.37;;
4742;SDS011;24293;48.154;7.748;2023-09-07T07:38:35;18.33;;;11.37;;
4742;SDS011;24293;48.154;7.748;2023-09-07T07:41:02;19.23;;;11.70;;
4742;SDS011;24293;48.154;7.748;2023-09-07T07:43:30;16.20;;;11.20;;
4742;SDS011;24293;48.154;7.748;2023-09-07T07:45:56;15.33;;;10.07;;
4742;SDS011;24293;48.154;7.748;2023-09-07T07:48:23;17.13;;;10.63;;
4742;SDS011;24293;48.154;7.748;2023-09-07T07:50:49;16.57;;;10.67;;
4742;SDS011;24293;48.154;7.748;2023-09-07T07:53:16;18.73;;;11.70;;
4742;SDS011;24293;48.154;7.748;2023-09-07T07:55:42;15.53;;;9.67;;
4742;SDS011;24293;48.154;7.748;2023-09-07T07:58:09;16.63;;;10.80;;
4742;SDS011;24293;48.154;7.748;2023-09-07T08:00:37;23.67;;;11.23;;
4742;SDS011;24293;48.154;7.748;2023-09-07T08:03:05;41.47;;;19.87;;
4742;SDS011;24293;48.154;7.748;2023-09-07T08:05:32;16.90;;;10.70;;
4742;SDS011;24293;48.154;7.748;2023-09-07T08:07:59;18.63;;;10.43;;
4742;SDS011;24293;48.154;7.748;2023-09-07T08:10:25;19.60;;;11.83;;
4742;SDS011;24293;48.154;7.748;2023-09-07T08:12:53;16.47;;;11.07;;
4742;SDS011;24293;48.154;7.748;2023-09-07T08:15:19;23.13;;;14.10;;
4742;SDS011;24293;48.154;7.748;2023-09-07T08:17:49;32.03;;;17.33;;
4742;SDS011;24293;48.154;7.748;2023-09-07T08:20:15;32.40;;;14.70;;
4742;SDS011;24293;48.154;7.748;2023-09-07T08:22:42;19.73;;;12.27;;
4742;SDS011;24293;48.154;7.748;2023-09-07T08:25:09;19.80;;;10.13;;
4742;SDS011;24293;48.154;7.748;2023-09-07T08:27:37;21.90;;;12.33;;
4742;SDS011;24293;48.154;7.748;2023-09-07T08:30:07;22.07;;;11.97;;
4742;SDS011;24293;48.154;7.748;2023-09-07T08:32:37;17.30;;;11.00;;
4742;SDS011;24293;48.154;7.748;2023-09-07T08:35:08;26.07;;;10.67;;
4742;SDS011;24293;48.154;7.748;2023-09-07T08:37:36;23.03;;;10.70;;
4742;SDS011;24293;48.154;7.748;2023-09-07T08:40:02;18.00;;;10.83;;
4742;SDS011;24293;48.154;7.748;2023-09-07T08:42:32;17.37;;;10.57;;
4742;SDS011;24293;48.154;7.748;2023-09-07T08:44:59;21.17;;;11.87;;
4742;SDS011;24293;48.154;7.748;2023-09-07T08:47:32;17.93;;;10.27;;
4742;SDS011;24293;48.154;7.748;2023-09-07T08:49:59;15.57;;;9.77;;
4742;SDS011;24293;48.154;7.748;2023-09-07T08:52:27;24.67;;;9.53;;
4742;SDS011;24293;48.154;7.748;2023-09-07T08:54:54;20.53;;;10.03;;
4742;SDS011;24293;48.154;7.748;2023-09-07T08:57:23;26.37;;;10.40;;
4742;SDS011;24293;48.154;7.748;2023-09-07T08:59:50;15.07;;;9.83;;
4742;SDS011;24293;48.154;7.748;2023-09-07T09:02:17;15.40;;;9.30;;
4742;SDS011;24293;48.154;7.748;2023-09-07T09:04:43;17.87;;;9.73;;
4742;SDS011;24293;48.154;7.748;2023-09-07T09:07:10;15.23;;;8.80;;
4742;SDS011;24293;48.154;7.748;2023-09-07T09:09:38;15.50;;;9.43;;
4742;SDS011;24293;48.154;7.748;2023-09-07T09:12:07;15.63;;;8.43;;
4742;SDS011;24293;48.154;7.748;2023-09-07T09:14:34;15.60;;;8.93;;
4742;SDS011;24293;48.154;7.748;2023-09-07T09:17:00;14.20;;;9.93;;
4742;SDS011;24293;48.154;7.748;2023-09-07T09:19:30;15.10;;;9.70;;
4742;SDS011;24293;48.154;7.748;2023-09-07T09:21:57;12.53;;;7.73;;
4742;SDS011;24293;48.154;7.748;2023-09-07T09:24:25;18.63;;;8.07;;
4742;SDS011;24293;48.154;7.748;2023-09-07T09:26:55;11.40;;;7.77;;
4742;SDS011;24293;48.154;7.748;2023-09-07T09:29:22;13.93;;;8.27;;
4742;SDS011;24293;48.154;7.748;2023-09-07T09:31:50;15.17;;;8.40;;
4742;SDS011;24293;48.154;7.748;2023-09-07T09:34:17;14.63;;;8.57;;
4742;SDS011;24293;48.154;7.748;2023-09-07T09:36:44;12.37;;;8.00;;
4742;SDS011;24293;48.154;7.748;2023-09-07T09:39:10;13.70;;;7.67;;
4742;SDS011;24293;48.154;7.748;2023-09-07T09:41:47;15.27;;;7.90;;
4742;SDS011;24293;48.154;7.748;2023-09-07T09:44:15;14.23;;;7.60;;
4742;SDS011;24293;48.154;7.748;2023-09-07T09:46:42;13.57;;;7.20;;
4742;SDS011;24293;48.154;7.748;2023-09-07T09:49:09;16.33;;;7.40;;
4742;SDS011;24293;48.154;7.748;2023-09-07T09:51:39;12.00;;;7.63;;
4742;SDS011;24293;48.154;7.748;2023-09-07T09:54:08;14.57;;;8.00;;
4742;SDS011;24293;48.154;7.748;2023-09-07T09:56:35;16.30;;;7.50;;
4742;SDS011;24293;48.154;7.748;2023-09-07T09:59:01;11.83;;;8.20;;
4742;SDS011;24293;48.154;7.748;2023-09-07T10:01:40;14.63;;;7.70;;
4742;SDS011;24293;48.154;7.748;2023-09-07T10:04:09;13.57;;;7.57;;
4742;SDS011;24293;48.154;7.748;2023-09-07T10:06:49;11.43;;;8.07;;
4742;SDS011;24293;48.154;7.748;2023-09-07T10:09:16;17.40;;;8.20;;
4742;SDS011;24293;48.154;7.748;2023-09-07T10:11:50;17.57;;;9.60;;
4742;SDS011;24293;48.154;7.748;2023-09-07T10:14:19;14.43;;;7.17;;
4742;SDS011;24293;48.154;7.748;2023-09-07T10:16:48;10.27;;;7.13;;
4742;SDS011;24293;48.154;7.748;2023-09-07T10:19:15;18.03;;;8.37;;
4742;SDS011;24293;48.154;7.748;2023-09-07T10:21:42;14.20;;;7.50;;
4742;SDS011;24293;48.154;7.748;2023-09-07T10:24:08;14.83;;;6.90;;
4742;SDS011;24293;48.154;7.748;2023-09-07T10:26:35;9.00;;;6.87;;
4742;SDS011;24293;48.154;7.748;2023-09-07T10:29:01;9.23;;;6.50;;
4742;SDS011;24293;48.154;7.748;2023-09-07T10:31:31;14.73;;;6.97;;
4742;SDS011;24293;48.154;7.748;2023-09-07T10:34:10;10.87;;;6.53;;
4742;SDS011;24293;48.154;7.748;2023-09-07T10:36:37;12.13;;;7.30;;
4742;SDS011;24293;48.154;7.748;2023-09-07T10:39:04;19.13;;;8.30;;
4742;SDS011;24293;48.154;7.748;2023-09-07T10:41:41;10.67;;;7.30;;
4742;SDS011;24293;48.154;7.748;2023-09-07T10:44:08;14.37;;;6.67;;
4742;SDS011;24293;48.154;7.748;2023-09-07T10:46:36;17.37;;;7.20;;
4742;SDS011;24293;48.154;7.748;2023-09-07T10:49:03;17.00;;;5.83;;
4742;SDS011;24293;48.154;7.748;2023-09-07T10:51:31;11.60;;;6.53;;
4742;SDS011;24293;48.154;7.748;2023-09-07T10:54:00;12.63;;;6.80;;
4742;SDS011;24293;48.154;7.748;2023-09-07T10:56:28;14.93;;;7.07;;
4742;SDS011;24293;48.154;7.748;2023-09-07T10:58:54;13.73;;;6.80;;
4742;SDS011;24293;48.154;7.748;2023-09-07T11:01:20;14.53;;;6.20;;
4742;SDS011;24293;48.154;7.748;2023-09-07T11:03:47;9.20;;;6.10;;
4742;SDS011;24293;48.154;7.748;2023-09-07T11:06:15;10.23;;;5.83;;
4742;SDS011;24293;48.154;7.748;2023-09-07T11:08:44;13.57;;;5.90;;
4742;SDS011;24293;48.154;7.748;2023-09-07T11:11:11;8.80;;;5.77;;
4742;SDS011;24293;48.154;7.748;2023-09-07T11:13:38;10.70;;;6.30;;
4742;SDS011;24293;48.154;7.748;2023-09-07T11:16:07;10.67;;;6.60;;
4742;SDS011;24293;48.154;7.748;2023-09-07T11:18:33;11.30;;;6.30;;
4742;SDS011;24293;48.154;7.748;2023-09-07T11:21:01;9.07;;;6.40;;
4742;SDS011;24293;48.154;7.748;2023-09-07T11:23:29;12.77;;;6.50;;
4742;SDS011;24293;48.154;7.748;2023-09-07T11:25:58;8.60;;;6.10;;
4742;SDS011;24293;48.154;7.748;2023-09-07T11:28:24;12.27;;;6.83;;
4742;SDS011;24293;48.154;7.748;2023-09-07T11:30:52;10.43;;;6.10;;
4742;SDS011;24293;48.154;7.748;2023-09-07T11:33:21;10.97;;;6.43;;
4742;SDS011;24293;48.154;7.748;2023-09-07T11:35:49;8.90;;;5.40;;
4742;SDS011;24293;48.154;7.748;2023-09-07T11:38:16;10.10;;;6.47;;
4742;SDS011;24293;48.154;7.748;2023-09-07T11:40:42;8.03;;;5.50;;
4742;SDS011;24293;48.154;7.748;2023-09-07T11:43:11;10.03;;;6.30;;
4742;SDS011;24293;48.154;7.748;2023-09-07T11:45:38;11.57;;;7.13;;
4742;SDS011;24293;48.154;7.748;2023-09-07T11:48:05;11.60;;;6.20;;
4742;SDS011;24293;48.154;7.748;2023-09-07T11:50:33;9.43;;;5.57;;
4742;SDS011;24293;48.154;7.748;2023-09-07T11:53:02;12.77;;;6.67;;
4742;SDS011;24293;48.154;7.748;2023-09-07T11:55:28;9.07;;;5.93;;
4742;SDS011;24293;48.154;7.748;2023-09-07T11:57:55;10.17;;;5.73;;
4742;SDS011;24293;48.154;7.748;2023-09-07T12:00:28;11.50;;;5.83;;
4742;SDS011;24293;48.154;7.748;2023-09-07T12:02:56;10.23;;;5.40;;
4742;SDS011;24293;48.154;7.748;2023-09-07T12:05:22;7.70;;;5.70;;
4742;SDS011;24293;48.154;7.748;2023-09-07T12:07:49;10.60;;;5.90;;
4742;SDS011;24293;48.154;7.748;2023-09-07T12:10:17;11.00;;;6.23;;
4742;SDS011;24293;48.154;7.748;2023-09-07T12:12:43;9.37;;;5.77;;
4742;SDS011;24293;48.154;7.748;2023-09-07T12:15:10;9.73;;;6.40;;
4742;SDS011;24293;48.154;7.748;2023-09-07T12:17:41;10.40;;;5.87;;
4742;SDS011;24293;48.154;7.748;2023-09-07T12:20:11;12.07;;;5.33;;
4742;SDS011;24293;48.154;7.748;2023-09-07T12:22:39;10.03;;;6.13;;
4742;SDS011;24293;48.154;7.748;2023-09-07T12:25:06;16.93;;;5.70;;
4742;SDS011;24293;48.154;7.748;2023-09-07T12:27:34;8.27;;;5.57;;
4742;SDS011;24293;48.154;7.748;2023-09-07T12:30:02;8.50;;;5.57;;
4742;SDS011;24293;48.154;7.748;2023-09-07T12:32:34;11.23;;;6.00;;
4742;SDS011;24293;48.154;7.748;2023-09-07T12:35:08;10.47;;;5.90;;
4742;SDS011;24293;48.154;7.748;2023-09-07T12:37:35;9.20;;;6.43;;
4742;SDS011;24293;48.154;7.748;2023-09-07T12:40:03;8.17;;;5.93;;
4742;SDS011;24293;48.154;7.748;2023-09-07T12:42:38;9.80;;;4.90;;
4742;SDS011;24293;48.154;7.748;2023-09-07T12:45:06;10.20;;;5.57;;
4742;SDS011;24293;48.154;7.748;2023-09-07T12:47:32;11.60;;;5.73;;
4742;SDS011;24293;48.154;7.748;2023-09-07T12:50:02;14.23;;;5.07;;
4742;SDS011;24293;48.154;7.748;2023-09-07T12:52:32;9.43;;;5.67;;
4742;SDS011;24293;48.154;7.748;2023-09-07T12:55:01;9.93;;;5.47;;
4742;SDS011;24293;48.154;7.748;2023-09-07T12:57:29;10.80;;;5.17;;
4742;SDS011;24293;48.154;7.748;2023-09-07T12:59:56;10.83;;;5.70;;
4742;SDS011;24293;48.154;7.748;2023-09-07T13:02:22;9.30;;;5.30;;
4742;SDS011;24293;48.154;7.748;2023-09-07T13:04:49;12.33;;;5.53;;
4742;SDS011;24293;48.154;7.748;2023-09-07T13:07:16;9.20;;;5.67;;
4742;SDS011;24293;48.154;7.748;2023-09-07T13:09:44;8.80;;;5.20;;
4742;SDS011;24293;48.154;7.748;2023-09-07T13:12:11;7.87;;;5.13;;
4742;SDS011;24293;48.154;7.748;2023-09-07T13:14:37;8.13;;;5.53;;
4742;SDS011;24293;48.154;7.748;2023-09-07T13:17:04;9.30;;;5.87;;
4742;SDS011;24293;48.154;7.748;2023-09-07T13:19:31;8.90;;;5.67;;
4742;SDS011;24293;48.154;7.748;2023-09-07T13:22:00;12.37;;;5.40;;
4742;SDS011;24293;48.154;7.748;2023-09-07T13:24:26;11.73;;;5.20;;
4742;SDS011;24293;48.154;7.748;2023-09-07T13:26:54;8.03;;;5.07;;
4742;SDS011;24293;48.154;7.748;2023-09-07T13:29:21;15.53;;;5.50;;
4742;SDS011;24293;48.154;7.748;2023-09-07T13:31:47;9.00;;;5.20;;
4742;SDS011;24293;48.154;7.748;2023-09-07T13:34:15;11.43;;;4.90;;
4742;SDS011;24293;48.154;7.748;2023-09-07T13:36:41;7.17;;;4.70;;
4742;SDS011;24293;48.154;7.748;2023-09-07T13:39:07;9.37;;;5.00;;
4742;SDS011;24293;48.154;7.748;2023-09-07T13:41:34;8.50;;;4.93;;
4742;SDS011;24293;48.154;7.748;2023-09-07T13:44:02;7.30;;;5.30;;
4742;SDS011;24293;48.154;7.748;2023-09-07T13:46:28;11.77;;;5.20;;
4742;SDS011;24293;48.154;7.748;2023-09-07T13:48:55;8.40;;;5.10;;
4742;SDS011;24293;48.154;7.748;2023-09-07T13:51:22;7.10;;;4.63;;
4742;SDS011;24293;48.154;7.748;2023-09-07T13:53:49;6.90;;;4.20;;
4742;SDS011;24293;48.154;7.748;2023-09-07T13:56:16;8.60;;;4.93;;
4742;SDS011;24293;48.154;7.748;2023-09-07T13:58:44;5.90;;;4.23;;
4742;SDS011;24293;48.154;7.748;2023-09-07T14:01:12;9.80;;;4.57;;
4742;SDS011;24293;48.154;7.748;2023-09-07T14:03:39;6.57;;;4.57;;
4742;SDS011;24293;48.154;7.748;2023-09-07T14:06:06;8.63;;;4.03;;
4742;SDS011;24293;48.154;7.748;2023-09-07T14:08:33;8.70;;;4.37;;
4742;SDS011;24293;48.154;7.748;2023-09-07T14:11:02;9.17;;;4.20;;
4742;SDS011;24293;48.154;7.748;2023-09-07T14:13:28;7.60;;;4.97;;
4742;SDS011;24293;48.154;7.748;2023-09-07T14:15:55;8.30;;;4.83;;
4742;SDS011;24293;48.154;7.748;2023-09-07T14:18:23;6.17;;;4.30;;
4742;SDS011;24293;48.154;7.748;2023-09-07T14:20:49;7.03;;;4.63;;
4742;SDS011;24293;48.154;7.748;2023-09-07T14:23:22;7.40;;;4.30;;
4742;SDS011;24293;48.154;7.748;2023-09-07T14:25:50;7.03;;;4.60;;
4742;SDS011;24293;48.154;7.748;2023-09-07T14:28:18;7.80;;;4.50;;
4742;SDS011;24293;48.154;7.748;2023-09-07T14:30:46;6.77;;;4.33;;
4742;SDS011;24293;48.154;7.748;2023-09-07T14:33:13;6.70;;;4.37;;
4742;SDS011;24293;48.154;7.748;2023-09-07T14:35:42;9.23;;;3.80;;
4742;SDS011;24293;48.154;7.748;2023-09-07T14:38:08;7.20;;;4.13;;
4742;SDS011;24293;48.154;7.748;2023-09-07T14:40:35;8.10;;;4.50;;
4742;SDS011;24293;48.154;7.748;2023-09-07T14:43:01;6.20;;;4.47;;
4742;SDS011;24293;48.154;7.748;2023-09-07T14:45:28;6.30;;;4.10;;
4742;SDS011;24293;48.154;7.748;2023-09-07T14:47:54;5.87;;;4.60;;
4742;SDS011;24293;48.154;7.748;2023-09-07T14:50:21;6.93;;;3.90;;
4742;SDS011;24293;48.154;7.748;2023-09-07T14:52:49;7.60;;;4.13;;
4742;SDS011;24293;48.154;7.748;2023-09-07T14:55:15;8.60;;;4.80;;